Time;durP1;ratioP1;P1;durP2;ratioP2;P2;SDS_P1;SDS_P2;PMS_P1;PMS_P2;Temp;Humidity;BMP_temperature;BMP_pressure;BME280_temperature;BME280_humidity;BME280_pressure;Samples;Min_cycle;Max_cycle;Signal;HPM_P1;HPM_P2
2023/10/10 00:01:06;;;;;;;26.50;8.80;;;;;;;15.50;73.97;96797.44;4967622;28;20555;-68
2023/10/10 00:03:32;;;;;;;21.70;8.20;;;;;;;15.45;74.09;96793.25;4967979;28;20495;-68
2023/10/10 00:06:06;;;;;;;23.17;8.70;;;;;;;15.46;74.13;96799.38;4964189;28;20441;-68
2023/10/10 00:08:36;;;;;;;15.20;8.90;;;;;;;15.46;74.34;96797.56;4966217;28;20436;-68
2023/10/10 00:11:15;;;;;;;12.23;7.83;;;;;;;15.38;73.95;96789.25;4966794;28;20468;-68
2023/10/10 00:13:52;;;;;;;15.67;8.80;;;;;;;15.38;74.34;96789.25;4966126;28;20441;-68
2023/10/10 00:19:37;;;;;;;16.73;9.27;;;;;;;15.33;74.24;96788.66;4965226;28;20440;-68
2023/10/10 00:22:05;;;;;;;17.93;9.30;;;;;;;15.29;74.28;96786.28;4967451;28;20456;-69
2023/10/10 00:24:31;;;;;;;15.63;9.10;;;;;;;15.25;74.51;96783.78;4967253;28;20872;-68
2023/10/10 00:27:35;;;;;;;17.87;8.40;;;;;;;15.22;74.50;96783.13;4966762;28;20490;-68
2023/10/10 00:29:53;;;;;;;17.80;9.30;;;;;;;15.22;74.65;96781.31;4972616;28;20201;-68
2023/10/10 00:32:22;;;;;;;12.40;8.43;;;;;;;15.23;74.52;96779.53;4968991;28;20464;-68
2023/10/10 00:34:49;;;;;;;19.47;9.13;;;;;;;15.23;74.39;96776.88;4966256;28;20519;-67
2023/10/10 00:37:29;;;;;;;15.80;8.80;;;;;;;15.21;74.64;96774.34;4967216;28;20480;-68
2023/10/10 00:39:55;;;;;;;15.50;9.40;;;;;;;15.21;74.36;96779.63;4966374;28;20437;-69
2023/10/10 00:42:36;;;;;;;20.53;9.23;;;;;;;15.18;74.35;96787.72;4966675;28;20822;-67
2023/10/10 00:45:15;;;;;;;17.50;9.83;;;;;;;15.13;74.80;96786.28;4966439;28;20468;-67
2023/10/10 00:47:48;;;;;;;20.50;9.00;;;;;;;15.10;74.96;96787.28;4963764;28;20468;-67
2023/10/10 00:50:18;;;;;;;27.63;10.80;;;;;;;15.13;74.75;96788.91;4966279;28;20460;-69
2023/10/10 00:52:46;;;;;;;32.50;10.30;;;;;;;15.11;74.28;96793.44;4966056;28;20499;-69
2023/10/10 00:55:12;;;;;;;20.80;8.43;;;;;;;15.07;74.54;96791.88;4966643;28;20803;-68
2023/10/10 00:57:39;;;;;;;13.90;8.07;;;;;;;15.06;74.27;96791.03;4966505;28;20788;-68
2023/10/10 01:00:15;;;;;;;20.23;10.30;;;;;;;15.04;74.40;96792.91;4962047;28;20433;-68
2023/10/10 01:02:42;;;;;;;19.60;9.83;;;;;;;14.98;74.67;96796.75;4966014;28;20467;-68
2023/10/10 01:05:19;;;;;;;19.53;8.60;;;;;;;14.99;74.16;96782.59;4966963;28;20485;-68
2023/10/10 01:07:47;;;;;;;18.80;8.80;;;;;;;14.94;74.33;96789.94;4965996;28;20934;-68
2023/10/10 01:10:22;;;;;;;15.77;9.77;;;;;;;14.93;74.48;96793.53;4964258;28;20456;-68
2023/10/10 01:12:47;;;;;;;15.37;8.53;;;;;;;14.95;73.68;96789.00;4966181;28;20439;-69
2023/10/10 01:15:57;;;;;;;17.47;8.70;;;;;;;14.92;73.96;96794.44;4965737;28;20436;-68
2023/10/10 01:18:03;;;;;;;20.87;9.27;;;;;;;14.88;73.80;96790.28;4965167;28;20193;-68
2023/10/10 01:20:45;;;;;;;19.37;8.40;;;;;;;14.81;74.11;96788.88;4966572;28;20471;-68
2023/10/10 01:23:11;;;;;;;15.30;7.27;;;;;;;14.71;74.69;96793.81;4965927;28;20524;-68
2023/10/10 01:28:13;;;;;;;12.93;6.80;;;;;;;14.78;74.34;96789.91;4964122;28;20455;-66
2023/10/10 01:33:37;;;;;;;20.43;8.10;;;;;;;14.70;74.20;96778.91;4969793;28;20440;-68
2023/10/10 01:36:12;;;;;;;10.30;7.17;;;;;;;14.68;74.67;96777.31;4968190;28;20444;-67
2023/10/10 01:38:55;;;;;;;17.70;8.00;;;;;;;14.73;74.09;96773.47;4968514;28;20431;-68
2023/10/10 01:41:48;;;;;;;16.03;8.30;;;;;;;14.67;74.63;96776.44;4966796;28;20472;-68
2023/10/10 01:44:22;;;;;;;16.47;7.83;;;;;;;14.56;74.79;96774.38;4968580;28;20880;-68
2023/10/10 01:46:50;;;;;;;17.13;8.30;;;;;;;14.52;75.26;96769.31;4968795;28;20444;-67
2023/10/10 01:49:29;;;;;;;15.00;7.90;;;;;;;14.53;75.14;96768.38;4969285;28;20507;-67
2023/10/10 01:51:58;;;;;;;20.13;8.80;;;;;;;14.50;75.35;96782.59;4969275;28;20511;-68
2023/10/10 01:54:41;;;;;;;15.60;8.07;;;;;;;14.58;74.86;96769.88;4968856;28;20496;-68
2023/10/10 01:57:21;;;;;;;20.27;8.93;;;;;;;14.57;74.88;96770.81;4969364;28;20440;-67
2023/10/10 01:59:48;;;;;;;16.47;9.03;;;;;;;14.54;74.85;96768.31;4968331;28;20443;-69
2023/10/10 02:02:13;;;;;;;14.27;8.60;;;;;;;14.51;75.34;96764.97;4969185;28;20992;-68
2023/10/10 02:04:39;;;;;;;15.47;7.87;;;;;;;14.56;74.81;96762.97;4968959;28;20460;-69
2023/10/10 02:07:21;;;;;;;16.40;8.00;;;;;;;14.52;74.89;96764.88;4968955;28;20218;-68
2023/10/10 02:09:53;;;;;;;14.97;8.10;;;;;;;14.47;75.01;96759.00;4967926;28;20213;-68
2023/10/10 02:12:22;;;;;;;20.87;7.67;;;;;;;14.49;75.18;96758.91;4969149;28;20527;-67
2023/10/10 02:14:47;;;;;;;13.60;7.37;;;;;;;14.49;74.65;96764.19;4969079;28;20429;-68
2023/10/10 02:17:24;;;;;;;11.20;7.53;;;;;;;14.50;74.81;96769.38;4969437;28;20534;-68
2023/10/10 02:22:33;;;;;;;9.73;7.97;;;;;;;14.52;74.43;96762.22;4969364;28;20503;-67
2023/10/10 02:27:54;;;;;;;16.13;8.37;;;;;;;14.45;74.14;96768.78;4966723;28;20188;-68
2023/10/10 02:30:37;;;;;;;10.47;6.97;;;;;;;14.47;73.92;96760.78;4968522;28;20566;-69
2023/10/10 02:35:58;;;;;;;19.83;7.30;;;;;;;14.44;73.58;96768.88;4969177;28;20432;-68
2023/10/10 02:38:32;;;;;;;11.80;6.80;;;;;;;14.44;73.11;96767.09;4968403;28;20947;-68
2023/10/10 02:46:38;;;;;;;16.47;8.50;;;;;;;14.50;72.17;96761.47;4968016;28;20433;-68
2023/10/10 02:49:29;;;;;;;26.00;8.40;;;;;;;14.46;72.11;96761.72;4967450;28;20467;-68
2023/10/10 02:51:55;;;;;;;16.90;7.30;;;;;;;14.46;72.23;96773.16;4967467;28;20816;-67
2023/10/10 02:56:58;;;;;;;17.77;7.43;;;;;;;14.43;72.12;96772.44;4968181;28;20521;-68
2023/10/10 02:59:38;;;;;;;14.00;6.40;;;;;;;14.39;71.95;96769.13;4967812;28;20448;-68
2023/10/10 03:02:11;;;;;;;19.67;8.73;;;;;;;14.36;72.34;96771.91;4968413;28;20484;-67
2023/10/10 03:07:29;;;;;;;20.00;7.80;;;;;;;14.39;72.15;96772.63;4968605;28;20524;-68
2023/10/10 03:12:41;;;;;;;36.10;9.40;;;;;;;14.37;71.50;96769.19;4965007;28;20493;-68
2023/10/10 03:18:04;;;;;;;15.27;8.50;;;;;;;14.29;70.96;96766.13;4968636;28;20482;-68
2023/10/10 03:28:47;;;;;;;14.50;7.90;;;;;;;14.12;71.41;96763.50;4962973;28;20492;-68
2023/10/10 03:36:32;;;;;;;13.90;6.93;;;;;;;14.01;72.04;96774.63;4969152;28;20471;-68
2023/10/10 03:39:15;;;;;;;13.00;6.77;;;;;;;14.12;71.54;96772.25;4968658;28;20512;-68
2023/10/10 05:25:43;;;;;;;17.90;7.63;;;;;;;13.73;71.55;96756.72;4964401;28;20475;-68
2023/10/10 05:28:09;;;;;;;16.93;10.00;;;;;;;13.73;71.40;96757.56;4963287;28;20440;-68
2023/10/10 05:30:42;;;;;;;22.67;8.50;;;;;;;13.75;71.77;96758.34;4970391;28;20201;-69
2023/10/10 05:33:08;;;;;;;30.83;9.27;;;;;;;13.77;71.35;96755.59;4965841;28;20440;-69
2023/10/10 05:35:36;;;;;;;89.87;15.87;;;;;;;13.79;71.59;96755.53;4963674;28;20514;-69
2023/10/10 05:38:04;;;;;;;35.30;11.03;;;;;;;13.77;71.29;96752.97;4966053;28;20174;-68
2023/10/10 05:40:33;;;;;;;31.90;8.17;;;;;;;13.75;71.48;96745.16;4967796;28;20468;-69
2023/10/10 05:43:09;;;;;;;27.13;8.90;;;;;;;13.86;70.97;96747.22;4970423;28;20432;-70
2023/10/10 05:45:37;;;;;;;12.60;6.90;;;;;;;13.86;70.63;96747.22;4967375;28;20545;-70
2023/10/10 05:48:04;;;;;;;14.57;7.10;;;;;;;13.92;70.50;96746.91;4968433;28;20465;-70
2023/10/10 05:50:32;;;;;;;28.73;8.23;;;;;;;14.04;69.69;96756.00;4968570;28;20472;-69
2023/10/10 05:52:58;;;;;;;22.17;8.23;;;;;;;14.13;69.42;96749.38;4976923;28;20429;-69
2023/10/10 05:55:29;;;;;;;14.40;6.90;;;;;;;14.18;68.67;96753.47;4970171;28;20415;-71
2023/10/10 05:57:57;;;;;;;13.03;7.10;;;;;;;14.41;67.86;96748.78;4973234;28;20467;-70
2023/10/10 06:00:26;;;;;;;14.13;6.73;;;;;;;14.63;66.87;96750.28;4969784;28;20981;-70
2023/10/10 06:02:51;;;;;;;15.00;6.90;;;;;;;14.82;66.18;96759.75;4974818;28;20425;-69
2023/10/10 06:05:17;;;;;;;11.33;7.83;;;;;;;15.12;64.78;96761.63;4968613;28;20472;-70
2023/10/10 06:07:43;;;;;;;13.73;6.60;;;;;;;15.30;63.88;96751.78;4969001;28;20232;-70
2023/10/10 06:10:18;;;;;;;16.70;6.70;;;;;;;15.42;63.88;96753.72;4968282;28;20232;-68
2023/10/10 06:12:47;;;;;;;13.70;7.20;;;;;;;15.53;63.32;96752.28;4968795;28;20420;-70
2023/10/10 06:15:19;;;;;;;14.47;6.33;;;;;;;15.80;62.11;96753.34;4973619;28;20417;-69
2023/10/10 06:17:45;;;;;;;20.77;6.73;;;;;;;16.51;60.49;96743.75;4962407;28;21079;-70
2023/10/10 06:20:15;;;;;;;15.20;7.70;;;;;;;17.00;59.15;96750.44;4969305;28;20428;-69
2023/10/10 06:22:41;;;;;;;23.70;9.77;;;;;;;17.42;57.12;96752.09;4969218;28;20428;-70
2023/10/10 06:25:09;;;;;;;12.47;6.17;;;;;;;18.08;54.84;96761.00;4968930;28;20811;-70
2023/10/10 06:27:36;;;;;;;17.53;7.30;;;;;;;18.27;54.25;96755.28;4976300;28;20182;-70
2023/10/10 06:30:05;;;;;;;13.93;7.30;;;;;;;18.27;54.27;96760.59;4968361;28;20971;-70
2023/10/10 06:32:31;;;;;;;24.30;7.00;;;;;;;18.46;53.53;96769.94;4969211;28;20480;-70
2023/10/10 06:37:42;;;;;;;21.70;7.33;;;;;;;19.00;52.58;96764.38;4976472;28;20418;-71
2023/10/10 06:40:09;;;;;;;13.00;6.60;;;;;;;18.85;52.34;96770.78;4968840;28;20798;-70
2023/10/10 06:42:38;;;;;;;17.20;7.50;;;;;;;19.28;51.42;96767.69;4974963;28;20467;-71
2023/10/10 06:45:08;;;;;;;15.80;6.53;;;;;;;19.18;51.49;96771.03;4976493;28;20483;-70
2023/10/10 06:47:39;;;;;;;18.17;9.50;;;;;;;19.68;50.59;96773.63;4966347;28;20436;-70
2023/10/10 06:50:10;;;;;;;21.30;7.43;;;;;;;20.02;49.25;96766.59;4974198;28;20801;-70
2023/10/10 06:52:36;;;;;;;16.70;6.77;;;;;;;19.97;49.71;96776.75;4965351;28;21498;-69
2023/10/10 06:55:10;;;;;;;16.43;6.70;;;;;;;20.45;48.57;96778.44;4982118;28;20419;-70
2023/10/10 06:57:38;;;;;;;20.03;6.67;;;;;;;20.96;47.48;96769.16;4984969;28;20887;-69
2023/10/10 07:03:00;;;;;;;27.40;8.20;;;;;;;20.00;49.62;96776.50;4955174;28;20417;-69
2023/10/10 07:05:33;;;;;;;19.90;8.27;;;;;;;20.28;49.12;96777.06;4948644;29;20468;-70
2023/10/10 07:07:59;;;;;;;15.50;7.20;;;;;;;20.79;48.21;96778.47;4968683;28;20210;-71
2023/10/10 07:10:35;;;;;;;16.57;7.63;;;;;;;20.87;47.66;96779.56;4968128;28;20453;-69
2023/10/10 07:13:01;;;;;;;12.73;6.50;;;;;;;21.32;46.46;96771.50;4968531;28;20181;-69
2023/10/10 07:15:33;;;;;;;16.87;7.23;;;;;;;21.94;45.32;96771.81;4968372;28;20548;-69
2023/10/10 07:18:08;;;;;;;36.03;7.90;;;;;;;22.23;44.58;96777.44;4959523;28;20469;-69
2023/10/10 07:23:20;;;;;;;20.50;7.10;;;;;;;22.04;44.58;96775.44;4948907;29;20469;-70
2023/10/10 07:25:58;;;;;;;33.97;8.43;;;;;;;21.65;45.42;96772.44;4964547;28;20598;-70
2023/10/10 07:28:26;;;;;;;40.90;7.93;;;;;;;21.60;45.73;96776.47;4988561;28;20773;-71
2023/10/10 07:30:55;;;;;;;26.20;8.73;;;;;;;21.71;45.43;96771.94;4988683;28;20548;-72
2023/10/10 07:33:23;;;;;;;15.70;7.77;;;;;;;21.93;44.72;96776.31;4989047;28;20423;-70
2023/10/10 07:35:53;;;;;;;15.67;6.20;;;;;;;;;;4988803;28;20412;-70
2023/10/10 07:38:28;;;;;;;14.90;6.43;;;;;;;21.72;45.43;96778.97;4988468;28;20451;-68
2023/10/10 07:40:54;;;;;;;15.20;6.80;;;;;;;21.69;45.36;96781.88;4988474;28;20438;-69
2023/10/10 07:43:26;;;;;;;24.07;7.60;;;;;;;21.96;44.84;96781.41;4988182;28;20416;-69
2023/10/10 07:45:54;;;;;;;12.63;5.90;;;;;;;22.05;44.55;96790.47;4979173;28;20209;-70
2023/10/10 07:48:38;;;;;;;19.03;7.53;;;;;;;22.22;44.54;96783.75;4969376;28;20440;-71
2023/10/10 07:51:06;;;;;;;12.67;6.77;;;;;;;22.41;43.97;96783.84;4969846;28;20424;-72
2023/10/10 07:53:42;;;;;;;16.33;7.90;;;;;;;22.40;44.26;96789.34;4969795;28;20448;-70
2023/10/10 07:56:07;;;;;;;34.50;9.43;;;;;;;22.57;43.67;96782.56;4967766;28;20432;-70
2023/10/10 07:58:49;;;;;;;20.90;8.47;;;;;;;22.80;43.37;96780.56;4970470;28;20429;-71
2023/10/10 08:01:17;;;;;;;12.73;7.00;;;;;;;22.87;43.44;96783.53;4962908;28;20194;-70
2023/10/10 08:03:45;;;;;;;13.90;7.00;;;;;;;23.04;43.07;96793.66;4969276;28;20420;-71
2023/10/10 08:06:12;;;;;;;13.80;6.40;;;;;;;22.98;43.42;96789.66;4968918;28;20424;-69
2023/10/10 08:08:40;;;;;;;25.30;7.93;;;;;;;23.03;43.42;96790.13;4968309;28;20421;-69
2023/10/10 08:11:12;;;;;;;17.20;8.33;;;;;;;23.32;42.82;96792.06;4968513;28;20828;-69
2023/10/10 08:13:38;;;;;;;13.80;6.27;;;;;;;23.33;42.99;96798.25;4968396;28;20491;-70
2023/10/10 08:16:04;;;;;;;13.53;7.00;;;;;;;23.29;42.93;96795.00;4968540;28;20421;-69
2023/10/10 08:18:52;;;;;;;16.60;6.70;;;;;;;23.33;43.08;96790.22;4968103;28;20413;-71
2023/10/10 08:21:22;;;;;;;16.33;7.20;;;;;;;23.04;43.49;96791.81;4968469;28;20230;-69
2023/10/10 08:23:56;;;;;;;19.97;8.80;;;;;;;23.33;43.38;96791.06;4968210;28;20583;-70
2023/10/10 08:26:26;;;;;;;20.30;9.00;;;;;;;23.34;43.15;96787.41;4968234;28;20444;-69
2023/10/10 08:28:52;;;;;;;13.73;6.70;;;;;;;23.60;42.67;96786.91;4968305;28;20416;-70
2023/10/10 08:31:18;;;;;;;13.30;6.77;;;;;;;23.37;42.88;96789.81;4968103;28;20441;-70
2023/10/10 08:33:45;;;;;;;21.37;8.60;;;;;;;23.06;44.05;96786.34;4968390;28;20424;-70
2023/10/10 08:36:12;;;;;;;17.33;7.33;;;;;;;22.81;44.71;96780.41;4968014;28;20186;-69
2023/10/10 08:38:42;;;;;;;16.43;7.50;;;;;;;22.62;45.60;96783.84;4967923;28;20421;-70
2023/10/10 08:41:08;;;;;;;14.10;7.20;;;;;;;22.82;45.37;96779.44;4967914;28;20436;-70
2023/10/10 08:43:38;;;;;;;17.90;6.83;;;;;;;22.74;45.71;96787.28;4968309;28;20868;-69
2023/10/10 08:46:04;;;;;;;18.27;8.53;;;;;;;22.60;45.63;96791.16;4956495;28;20465;-69
2023/10/10 08:48:33;;;;;;;19.53;7.30;;;;;;;22.62;46.00;96791.88;4948590;28;20913;-70
2023/10/10 08:51:03;;;;;;;21.70;7.87;;;;;;;22.69;46.04;96794.88;4948464;28;20281;-71
2023/10/10 08:53:29;;;;;;;24.90;8.60;;;;;;;22.92;45.62;96790.19;4948332;28;20440;-69
2023/10/10 08:55:57;;;;;;;48.57;10.50;;;;;;;22.40;46.80;96790.19;4949220;29;20414;-69
2023/10/10 08:58:23;;;;;;;17.37;8.00;;;;;;;22.66;45.92;96795.13;4948645;29;20189;-69
2023/10/10 09:00:51;;;;;;;14.00;6.50;;;;;;;22.50;46.62;96787.59;4966191;28;20862;-71
2023/10/10 09:03:17;;;;;;;20.63;7.90;;;;;;;22.64;46.25;96794.41;4968303;28;20184;-69
2023/10/10 09:05:43;;;;;;;15.47;7.37;;;;;;;22.74;46.12;96792.63;4968392;28;20611;-69
2023/10/10 09:08:17;;;;;;;17.37;6.30;;;;;;;22.65;45.97;96793.44;4967950;28;20421;-69
2023/10/10 09:10:43;;;;;;;25.10;8.43;;;;;;;22.43;46.95;96790.91;4973976;28;20212;-69
2023/10/10 09:13:09;;;;;;;17.40;7.10;;;;;;;22.34;47.23;96795.22;4979083;28;20408;-70
2023/10/10 09:15:35;;;;;;;16.60;6.90;;;;;;;22.31;47.47;96795.50;4987617;28;20413;-70
2023/10/10 09:18:22;;;;;;;20.40;7.27;;;;;;;22.28;47.46;96795.75;4978481;28;20428;-69
2023/10/10 09:20:47;;;;;;;20.93;7.60;;;;;;;22.47;47.08;96795.03;4967699;28;20448;-69
2023/10/10 09:23:26;;;;;;;15.67;7.80;;;;;;;22.30;47.38;96794.66;4967978;28;20413;-69
2023/10/10 09:28:58;;;;;;;18.37;7.80;;;;;;;22.99;45.83;96793.22;4967335;28;20486;-69
2023/10/10 09:31:31;;;;;;;28.33;8.67;;;;;;;23.12;45.90;96795.66;4967833;28;20924;-69
2023/10/10 09:33:57;;;;;;;47.47;10.33;;;;;;;23.25;45.21;96793.59;4967848;28;20524;-69
2023/10/10 09:36:29;;;;;;;37.13;8.93;;;;;;;23.31;45.25;96787.66;4967740;28;20420;-69
2023/10/10 09:39:08;;;;;;;15.43;7.67;;;;;;;23.41;45.09;96790.38;4967469;28;20409;-70
2023/10/10 09:55:07;;;;;;;10.47;6.93;;;;;;;23.63;44.33;96767.88;4971491;28;21392;-69
2023/10/10 09:57:39;;;;;;;16.80;6.57;;;;;;;23.56;44.40;96767.56;4970917;28;20412;-70
2023/10/10 10:00:10;;;;;;;14.67;5.77;;;;;;;23.52;44.32;96762.63;4970494;28;21002;-70
2023/10/10 10:02:49;;;;;;;19.73;6.40;;;;;;;23.58;44.47;96765.59;4970942;28;20559;-69
2023/10/10 10:05:28;;;;;;;20.43;6.77;;;;;;;23.47;44.81;96768.41;4970639;28;20476;-67
2023/10/10 10:08:21;;;;;;;23.67;7.50;;;;;;;23.33;45.76;96766.13;4970824;28;20419;-70
2023/10/10 10:10:49;;;;;;;24.60;7.50;;;;;;;23.35;46.16;96767.66;4967555;28;20919;-70
2023/10/10 10:13:52;;;;;;;31.33;7.10;;;;;;;23.55;45.80;96773.94;4962381;28;20429;-70
2023/10/10 10:16:37;;;;;;;19.97;6.50;;;;;;;23.54;45.93;96774.06;4978459;28;20490;-67
2023/10/10 10:19:17;;;;;;;21.50;7.30;;;;;;;23.30;46.22;96775.28;4972906;28;20437;-70
2023/10/10 10:24:44;;;;;;;16.53;6.60;;;;;;;23.33;46.57;96774.16;4978850;28;20460;-70
2023/10/10 10:27:31;;;;;;;24.70;8.20;;;;;;;23.45;46.53;96773.03;4970134;28;20425;-69
2023/10/10 10:32:48;;;;;;;14.97;6.50;;;;;;;23.61;46.35;96777.88;4969972;28;21005;-70
2023/10/10 10:35:22;;;;;;;31.03;8.03;;;;;;;23.75;46.11;96777.50;4969927;28;20900;-70
2023/10/10 10:37:55;;;;;;;18.00;6.30;;;;;;;23.73;46.71;96776.75;4970142;28;20475;-69
2023/10/10 10:43:15;;;;;;;16.60;6.50;;;;;;;23.86;46.19;96769.31;4972534;28;20428;-69
2023/10/10 10:45:51;;;;;;;16.80;5.93;;;;;;;23.76;47.16;96771.13;4974966;28;21086;-68
2023/10/10 10:48:29;;;;;;;33.73;7.50;;;;;;;23.88;46.85;96769.16;4970090;28;20986;-68
2023/10/10 10:51:23;;;;;;;23.07;8.20;;;;;;;23.95;47.20;96769.44;4971568;28;20807;-69
2023/10/10 10:53:56;;;;;;;22.23;7.60;;;;;;;24.09;47.27;96763.66;4970351;28;20787;-69
2023/10/10 11:01:28;;;;;;;40.83;9.67;;;;;;;24.29;46.78;96753.75;4964196;28;20882;-69
2023/10/10 11:03:55;;;;;;;36.63;7.70;;;;;;;24.34;46.20;96750.66;4970144;28;20440;-70
2023/10/10 11:06:24;;;;;;;21.63;7.20;;;;;;;24.32;46.41;96745.41;4964818;28;20971;-69
2023/10/10 11:14:00;;;;;;;20.03;6.90;;;;;;;23.97;46.63;96733.47;4960291;28;20773;-68
2023/10/10 11:16:37;;;;;;;19.27;7.07;;;;;;;23.96;46.18;96729.09;4961947;28;20925;-69
2023/10/10 11:21:53;;;;;;;11.00;5.80;;;;;;;24.01;46.08;96726.00;4961629;28;20544;-70
2023/10/10 11:24:23;;;;;;;15.20;5.63;;;;;;;24.09;46.37;96723.44;4964634;28;20487;-69
2023/10/10 11:27:07;;;;;;;15.80;5.90;;;;;;;23.93;46.13;96729.41;4961845;28;21003;-70
2023/10/10 11:29:42;;;;;;;16.07;5.87;;;;;;;24.02;45.12;96722.31;4966236;28;20491;-69
2023/10/10 11:32:12;;;;;;;18.73;5.97;;;;;;;24.04;45.20;96715.81;4961062;28;20460;-70
2023/10/10 11:34:44;;;;;;;11.67;5.40;;;;;;;23.98;45.32;96718.25;4961355;28;21188;-69
2023/10/10 11:37:13;;;;;;;16.63;5.57;;;;;;;24.02;45.29;96709.75;4963994;28;20441;-69
2023/10/10 11:39:48;;;;;;;15.57;5.50;;;;;;;23.93;44.99;96709.78;4961078;28;20445;-71
2023/10/10 11:42:26;;;;;;;24.73;7.47;;;;;;;23.95;45.18;96705.13;4962850;28;20896;-70
2023/10/10 11:45:19;;;;;;;16.43;5.40;;;;;;;23.98;45.32;96704.84;4960289;28;20507;-69
2023/10/10 11:47:45;;;;;;;17.30;6.40;;;;;;;23.91;46.20;96706.41;4960949;28;20460;-70
2023/10/10 11:50:12;;;;;;;8.70;6.20;;;;;;;23.87;46.64;96698.63;4963278;28;20441;-69
2023/10/10 11:52:57;;;;;;;9.67;5.20;;;;;;;23.92;46.80;96698.22;4959286;28;20218;-70
2023/10/10 11:55:27;;;;;;;10.67;5.87;;;;;;;24.07;47.02;96701.28;4963018;28;20479;-71
2023/10/10 11:58:07;;;;;;;12.57;5.80;;;;;;;24.13;46.11;96694.50;4964542;28;20448;-71
2023/10/10 12:00:42;;;;;;;15.20;6.80;;;;;;;24.14;46.00;96685.47;4958778;28;20459;-70
2023/10/10 12:03:34;;;;;;;21.53;6.60;;;;;;;24.09;45.95;96688.56;4962112;28;20472;-68
2023/10/10 12:06:00;;;;;;;14.07;7.10;;;;;;;24.03;45.50;96684.66;4965179;28;20476;-70
2023/10/10 12:08:26;;;;;;;17.43;6.33;;;;;;;24.02;45.52;96684.78;4961801;28;20510;-70
2023/10/10 12:10:53;;;;;;;13.07;5.27;;;;;;;24.05;45.25;96679.16;4965859;28;20212;-71
2023/10/10 12:13:33;;;;;;;14.70;5.13;;;;;;;24.08;45.33;96678.84;4976207;28;20188;-71
2023/10/10 12:15:59;;;;;;;16.40;5.57;;;;;;;24.01;45.37;96669.69;4993047;28;20491;-69
2023/10/10 12:18:31;;;;;;;14.33;6.23;;;;;;;23.97;45.28;96674.50;4966747;28;20442;-70
2023/10/10 12:21:01;;;;;;;19.23;5.83;;;;;;;23.98;45.10;96670.00;4954651;28;20425;-70
2023/10/10 12:23:27;;;;;;;17.83;6.40;;;;;;;24.01;44.88;96664.34;4949300;28;20422;-71
2023/10/10 12:25:54;;;;;;;24.70;5.97;;;;;;;23.81;45.12;96666.19;4949086;28;20463;-70
2023/10/10 12:28:20;;;;;;;15.80;5.80;;;;;;;23.88;44.53;96660.13;4950725;28;20409;-70
2023/10/10 12:30:46;;;;;;;15.37;5.63;;;;;;;23.71;45.01;96660.81;4962414;28;20462;-70
2023/10/10 12:33:12;;;;;;;21.97;5.80;;;;;;;23.71;45.20;96660.81;4967562;28;20457;-68
2023/10/10 12:35:47;;;;;;;11.50;5.10;;;;;;;23.73;45.60;96655.31;4979523;28;20542;-70
2023/10/10 12:38:20;;;;;;;12.27;5.60;;;;;;;23.74;45.44;96657.03;4974312;28;20881;-70
2023/10/10 12:40:47;;;;;;;16.30;5.60;;;;;;;23.69;44.21;96660.09;4973466;28;20970;-70
2023/10/10 12:43:13;;;;;;;16.20;5.63;;;;;;;23.64;44.98;96662.38;4979418;28;20424;-68
2023/10/10 12:45:38;;;;;;;29.70;7.53;;;;;;;23.56;45.83;96654.22;4977124;28;20471;-70
2023/10/10 12:48:13;;;;;;;17.90;5.43;;;;;;;23.53;45.85;96654.47;4975352;28;20209;-70
2023/10/10 12:50:39;;;;;;;16.10;5.90;;;;;;;23.43;45.69;96659.84;4972668;28;20292;-69
2023/10/10 12:53:15;;;;;;;10.17;5.07;;;;;;;23.36;46.58;96654.22;4970622;28;20933;-68
2023/10/10 12:56:00;;;;;;;17.33;6.20;;;;;;;23.32;47.00;96651.97;4974427;28;20212;-68
2023/10/10 12:58:26;;;;;;;22.50;6.50;;;;;;;23.32;47.08;96650.13;4972274;28;20416;-69
2023/10/10 13:00:53;;;;;;;8.80;5.63;;;;;;;23.33;47.54;96651.81;4967649;28;20441;-69
2023/10/10 13:03:30;;;;;;;12.07;4.50;;;;;;;23.26;46.53;96650.69;4981076;28;20425;-71
2023/10/10 13:06:00;;;;;;;14.23;6.20;;;;;;;23.32;46.85;96638.56;4968052;28;20457;-68
2023/10/10 13:08:39;;;;;;;21.83;5.80;;;;;;;23.33;46.28;96640.25;4967612;28;20440;-69
2023/10/10 13:11:20;;;;;;;14.07;5.70;;;;;;;23.39;46.83;96640.53;4975556;28;20509;-69
2023/10/10 13:13:51;;;;;;;20.30;5.70;;;;;;;23.29;46.30;96645.03;4981232;28;20420;-68
2023/10/10 13:18:54;;;;;;;16.27;6.60;;;;;;;23.22;45.84;96644.75;4967216;28;20464;-70
2023/10/10 13:21:19;;;;;;;14.90;5.10;;;;;;;23.21;45.25;96639.53;4965303;28;20488;-70
2023/10/10 13:23:47;;;;;;;25.70;7.40;;;;;;;23.20;45.48;96635.19;4963758;28;21324;-69
2023/10/10 13:26:12;;;;;;;19.90;7.47;;;;;;;23.17;45.28;96638.13;4976367;28;20213;-69
2023/10/10 13:28:44;;;;;;;15.37;6.03;;;;;;;23.14;45.35;96638.41;4975484;28;20420;-70
2023/10/10 13:31:13;;;;;;;13.00;5.80;;;;;;;23.17;44.83;96643.47;4980113;28;20217;-69
2023/10/10 13:33:39;;;;;;;15.90;5.97;;;;;;;23.06;45.64;96646.31;4970015;28;20816;-69
2023/10/10 13:36:05;;;;;;;14.03;6.07;;;;;;;23.04;45.82;96635.72;4969524;28;20413;-70
2023/10/10 13:38:31;;;;;;;14.33;5.90;;;;;;;23.04;45.48;96633.88;4974896;28;20613;-68
2023/10/10 13:41:01;;;;;;;14.10;5.57;;;;;;;23.03;44.81;96632.22;4978431;28;20503;-71
2023/10/10 13:43:27;;;;;;;10.57;4.80;;;;;;;22.99;44.68;96636.13;4973374;28;20471;-69
2023/10/10 13:45:55;;;;;;;10.30;5.23;;;;;;;22.96;44.54;96625.69;4990445;28;20487;-68
2023/10/10 13:48:23;;;;;;;14.63;5.37;;;;;;;22.96;44.06;96628.38;4971026;28;20195;-68
2023/10/10 13:50:51;;;;;;;17.80;5.57;;;;;;;23.02;44.22;96635.00;4971288;28;20468;-69
2023/10/10 13:53:17;;;;;;;17.63;5.70;;;;;;;23.00;43.70;96629.78;4966710;28;20483;-67
2023/10/10 13:55:44;;;;;;;21.00;8.23;;;;;;;23.01;43.34;96628.81;4969792;28;20511;-69
2023/10/10 13:58:16;;;;;;;21.13;6.90;;;;;;;22.99;44.13;96633.47;4965927;28;20427;-68
2023/10/10 14:00:52;;;;;;;18.60;6.20;;;;;;;23.00;44.43;96621.75;4974417;28;20834;-68
2023/10/10 14:03:28;;;;;;;28.70;6.60;;;;;;;22.97;45.46;96623.84;4970803;28;20477;-67
2023/10/10 14:06:03;;;;;;;20.20;5.80;;;;;;;22.98;46.01;96633.56;4963791;28;20891;-70
2023/10/10 14:08:30;;;;;;;13.60;6.00;;;;;;;22.99;46.17;96628.09;4967529;28;20830;-69
2023/10/10 14:10:59;;;;;;;21.27;5.23;;;;;;;22.97;45.70;96619.34;4969343;28;20452;-70
2023/10/10 14:13:25;;;;;;;14.33;5.03;;;;;;;22.95;45.49;96623.13;4970914;28;20421;-68
2023/10/10 14:15:54;;;;;;;25.63;6.90;;;;;;;22.97;46.14;96623.84;4969645;28;20948;-69
2023/10/10 14:18:42;;;;;;;23.90;5.47;;;;;;;22.97;45.60;96615.81;4962400;28;20428;-70
2023/10/10 14:21:12;;;;;;;23.90;6.27;;;;;;;22.99;45.06;96617.41;4978185;28;20429;-70
2023/10/10 14:23:39;;;;;;;11.03;5.77;;;;;;;23.00;44.91;96619.09;4990156;28;20416;-70
2023/10/10 14:26:26;;;;;;;15.53;5.40;;;;;;;23.02;45.21;96614.44;4986828;28;20828;-67
2023/10/10 14:28:52;;;;;;;16.20;4.60;;;;;;;22.99;44.96;96617.41;4972061;28;20535;-69
2023/10/10 14:31:21;;;;;;;15.37;5.37;;;;;;;23.05;44.80;96618.66;4969265;28;20473;-69
2023/10/10 14:33:47;;;;;;;16.00;5.70;;;;;;;23.07;44.43;96616.69;4969001;28;20177;-70
2023/10/10 14:36:12;;;;;;;15.20;6.23;;;;;;;23.11;44.37;96617.28;4970297;28;20421;-69
2023/10/10 14:38:39;;;;;;;15.67;5.67;;;;;;;23.12;44.38;96616.28;4968421;28;20220;-68
2023/10/10 14:41:07;;;;;;;13.77;5.70;;;;;;;23.11;44.30;96618.13;4961398;28;20229;-69
2023/10/10 14:43:33;;;;;;;11.33;4.90;;;;;;;23.09;44.95;96619.25;4970360;28;21065;-69
2023/10/10 14:45:58;;;;;;;23.07;6.97;;;;;;;23.03;45.05;96621.50;4963661;28;20472;-69
2023/10/10 14:48:24;;;;;;;14.57;6.07;;;;;;;22.98;45.36;96620.19;4971093;28;20495;-68
2023/10/10 14:50:52;;;;;;;17.40;7.13;;;;;;;22.90;45.50;96623.56;4970097;28;20297;-68
2023/10/10 14:53:24;;;;;;;16.10;6.90;;;;;;;22.85;45.37;96615.09;4978433;28;20618;-69
2023/10/10 14:55:52;;;;;;;19.93;9.77;;;;;;;22.84;45.22;96618.75;4970077;28;20502;-69
2023/10/10 14:58:21;;;;;;;19.00;6.77;;;;;;;22.79;46.21;96618.31;4965494;28;20487;-69
2023/10/10 15:00:49;;;;;;;36.77;10.13;;;;;;;22.76;46.01;96610.56;4969638;28;20449;-69
2023/10/10 15:03:16;;;;;;;21.57;9.90;;;;;;;22.77;46.01;96613.13;4977824;28;20421;-69
2023/10/10 15:05:50;;;;;;;25.93;15.57;;;;;;;22.74;45.90;96615.22;4975833;28;20472;-69